Time;durP1;ratioP1;P1;durP2;ratioP2;P2;SDS_P1;SDS_P2;PMS_P1;PMS_P2;Temp;Humidity;BMP_temperature;BMP_pressure;BME280_temperature;BME280_humidity;BME280_pressure;Samples;Min_cycle;Max_cycle;Signal;HPM_P1;HPM_P2
2023/07/21 00:01:17;;;;;;;;;;;;;;;;;;7369124;19;782;-62
2023/07/21 00:03:45;;;;;;;;;;;;;;;;;;7366838;19;1842;-61
2023/07/21 00:06:17;;;;;;;;;;;;;;;;;;7369030;19;1285;-61
2023/07/21 00:08:45;;;;;;;;;;;;;;;;;;7368642;19;748;-57
2023/07/21 00:11:13;;;;;;;;;;;;;;;;;;7370739;19;899;-63
2023/07/21 00:13:41;;;;;;;;;;;;;;;;;;7369329;19;858;-62
2023/07/21 00:16:09;;;;;;;;;;;;;;;;;;7368498;19;1329;-61
2023/07/21 00:18:39;;;;;;;;;;;;;;;;;;7368997;19;865;-62
2023/07/21 00:21:07;;;;;;;;;;;;;;;;;;7368607;19;887;-62
2023/07/21 00:23:36;;;;;;;;;;;;;;;;;;7367316;19;1838;-62
2023/07/21 00:26:04;;;;;;;;;;;;;;;;;;7369296;19;1285;-62
2023/07/21 00:28:32;;;;;;;;;;;;;;;;;;7368529;19;1028;-62
2023/07/21 00:31:00;;;;;;;;;;;;;;;;;;7367178;19;881;-62
2023/07/21 00:33:28;;;;;;;;;;;;;;;;;;7367037;19;853;-62
2023/07/21 00:35:58;;;;;;;;;;;;;;;;;;7366731;19;920;-61
2023/07/21 00:38:26;;;;;;;;;;;;;;;;;;7366012;19;837;-62
2023/07/21 00:40:55;;;;;;;;;;;;;;;;;;7366814;19;803;-62
2023/07/21 00:43:24;;;;;;;;;;;;;;;;;;7365012;19;1861;-62
2023/07/21 00:45:52;;;;;;;;;;;;;;;;;;7370737;19;775;-62
2023/07/21 00:48:20;;;;;;;;;;;;;;;;;;7363621;19;1353;-62
2023/07/21 00:50:48;;;;;;;;;;;;;;;;;;7367155;19;950;-62
2023/07/21 00:53:16;;;;;;;;;;;;;;;;;;7368558;19;1790;-62
2023/07/21 00:55:45;;;;;;;;;;;;;;;;;;7367501;19;916;-62
2023/07/21 00:58:14;;;;;;;;;;;;;;;;;;7363729;19;1422;-62
2023/07/21 01:00:42;;;;;;;;;;;;;;;;;;7366794;19;807;-62
2023/07/21 01:03:10;;;;;;;;;;;;;;;;;;7368479;19;1855;-62
2023/07/21 01:05:41;;;;;;;;;;;;;;;;;;7366869;19;796;-62
2023/07/21 01:08:09;;;;;;;;;;;;;;;;;;7364119;19;1265;-62
2023/07/21 01:10:37;;;;;;;;;;;;;;;;;;7366521;19;839;-62
2023/07/21 01:13:05;;;;;;;;;;;;;;;;;;7365922;19;779;-63
2023/07/21 01:15:33;;;;;;;;;;;;;;;;;;7366184;19;834;-62
2023/07/21 01:18:01;;;;;;;;;;;;;;;;;;7365252;19;1275;-61
2023/07/21 01:20:30;;;;;;;;;;;;;;;;;;7365538;19;1833;-62
2023/07/21 01:22:58;;;;;;;;;;;;;;;;;;7367792;19;1969;-62
2023/07/21 01:25:27;;;;;;;;;;;;;;;;;;7367153;19;1905;-61
2023/07/21 01:27:55;;;;;;;;;;;;;;;;;;7368873;19;1424;-62
2023/07/21 01:30:23;;;;;;;;;;;;;;;;;;7366035;19;1650;-62
2023/07/21 01:32:51;;;;;;;;;;;;;;;;;;7364082;19;870;-62
2023/07/21 01:35:21;;;;;;;;;;;;;;;;;;7366958;19;872;-62
2023/07/21 01:37:50;;;;;;;;;;;;;;;;;;7367273;19;1302;-62
2023/07/21 01:40:18;;;;;;;;;;;;;;;;;;7366385;19;829;-62
2023/07/21 01:42:46;;;;;;;;;;;;;;;;;;7365236;19;1849;-62
2023/07/21 01:45:14;;;;;;;;;;;;;;;;;;7367083;19;865;-62
2023/07/21 01:47:43;;;;;;;;;;;;;;;;;;7364399;19;1289;-62
2023/07/21 01:50:13;;;;;;;;;;;;;;;;;;7365464;19;866;-62
2023/07/21 01:52:41;;;;;;;;;;;;;;;;;;7365630;19;876;-62
2023/07/21 01:55:11;;;;;;;;;;;;;;;;;;7366226;19;729;-63
2023/07/21 01:57:39;;;;;;;;;;;;;;;;;;7362694;19;1317;-62
2023/07/21 02:00:10;;;;;;;;;;;;;;;;;;7363825;19;809;-62
2023/07/21 02:02:44;;;;;;;;;;;;;;;;;;7365703;19;1838;-62
2023/07/21 02:05:13;;;;;;;;;;;;;;;;;;7364538;19;902;-62
2023/07/21 02:07:41;;;;;;;;;;;;;;;;;;7363626;19;1271;-62
2023/07/21 02:10:09;;;;;;;;;;;;;;;;;;7365398;19;858;-62
2023/07/21 02:12:37;;;;;;;;;;;;;;;;;;7365915;19;822;-62
2023/07/21 02:15:12;;;;;;;;;;;;;;;;;;7364407;19;770;-62
2023/07/21 02:17:40;;;;;;;;;;;;;;;;;;7361941;19;1267;-61
2023/07/21 02:20:10;;;;;;;;;;;;;;;;;;7365814;19;1718;-62
2023/07/21 02:22:39;;;;;;;;;;;;;;;;;;7365399;19;1853;-62
2023/07/21 02:25:09;;;;;;;;;;;;;;;;;;7363828;19;1830;-62
2023/07/21 02:27:37;;;;;;;;;;;;;;;;;;7365994;19;1773;-59
2023/07/21 02:30:06;;;;;;;;;;;;;;;;;;7365729;19;1784;-60
2023/07/21 02:32:35;;;;;;;;;;;;;;;;;;7365770;19;1671;-60
2023/07/21 02:35:06;;;;;;;;;;;;;;;;;;7367529;19;1807;-57
2023/07/21 02:37:35;;;;;;;;;;;;;;;;;;7361459;19;1322;-61
2023/07/21 02:40:04;;;;;;;;;;;;;;;;;;7367082;19;1465;-61
2023/07/21 02:42:32;;;;;;;;;;;;;;;;;;7364970;19;1845;-62
2023/07/21 02:45:01;;;;;;;;;;;;;;;;;;7371181;19;790;-62
2023/07/21 02:47:29;;;;;;;;;;;;;;;;;;7369094;19;1315;-59
2023/07/21 02:49:57;;;;;;;;;;;;;;;;;;7371084;19;830;-62
2023/07/21 02:52:27;;;;;;;;;;;;;;;;;;7373786;19;1658;-61
2023/07/21 02:54:57;;;;;;;;;;;;;;;;;;7370410;19;852;-61
2023/07/21 02:57:25;;;;;;;;;;;;;;;;;;7368340;19;1275;-62
2023/07/21 02:59:54;;;;;;;;;;;;;;;;;;7370241;19;871;-60
2023/07/21 03:02:30;;;;;;;;;;;;;;;;;;7373463;19;814;-61
2023/07/21 03:04:58;;;;;;;;;;;;;;;;;;7371556;19;810;-61
2023/07/21 03:07:26;;;;;;;;;;;;;;;;;;7368997;19;1276;-61
2023/07/21 03:10:02;;;;;;;;;;;;;;;;;;7368674;19;611;-62
2023/07/21 03:12:35;;;;;;;;;;;;;;;;;;7368459;19;838;-60
2023/07/21 03:15:15;;;;;;;;;;;;;;;;;;7368716;19;742;-60
2023/07/21 03:18:03;;;;;;;;;;;;;;;;;;7369126;19;1349;-61
2023/07/21 03:20:37;;;;;;;;;;;;;;;;;;7368883;19;806;-62
2023/07/21 03:23:08;;;;;;;;;;;;;;;;;;7367573;19;1843;-62
2023/07/21 03:25:37;;;;;;;;;;;;;;;;;;7369113;19;799;-62
2023/07/21 03:28:06;;;;;;;;;;;;;;;;;;7368131;19;1882;-61
2023/07/21 03:30:37;;;;;;;;;;;;;;;;;;7368897;19;803;-62
2023/07/21 03:33:17;;;;;;;;;;;;;;;;;;7368815;19;648;-62
2023/07/21 03:35:50;;;;;;;;;;;;;;;;;;7371398;19;1994;-61
2023/07/21 03:38:18;;;;;;;;;;;;;;;;;;7370166;19;2042;-62
2023/07/21 03:40:46;;;;;;;;;;;;;;;;;;7372719;19;1851;-60
2023/07/21 03:43:15;;;;;;;;;;;;;;;;;;7372462;19;1846;-62
2023/07/21 03:45:44;;;;;;;;;;;;;;;;;;7368865;19;795;-61
2023/07/21 03:48:13;;;;;;;;;;;;;;;;;;7371677;19;1700;-62
2023/07/21 03:50:41;;;;;;;;;;;;;;;;;;7368403;19;787;-62
2023/07/21 03:53:09;;;;;;;;;;;;;;;;;;7373514;19;1045;-62
2023/07/21 03:55:39;;;;;;;;;;;;;;;;;;7367057;19;803;-62
2023/07/21 03:58:07;;;;;;;;;;;;;;;;;;7366230;19;1331;-62
2023/07/21 04:00:37;;;;;;;;;;;;;;;;;;7374647;19;1570;-62
2023/07/21 04:03:05;;;;;;;;;;;;;;;;;;7367582;19;1859;-62
2023/07/21 04:05:33;;;;;;;;;;;;;;;;;;7368417;19;889;-62
2023/07/21 04:08:01;;;;;;;;;;;;;;;;;;7366071;19;1254;-61
2023/07/21 04:10:29;;;;;;;;;;;;;;;;;;7373336;19;744;-62
2023/07/21 04:12:58;;;;;;;;;;;;;;;;;;7367472;19;808;-63
2023/07/21 04:15:26;;;;;;;;;;;;;;;;;;7368292;19;859;-62
2023/07/21 04:17:54;;;;;;;;;;;;;;;;;;7366326;19;1332;-62
2023/07/21 04:20:22;;;;;;;;;;;;;;;;;;7368119;19;798;-62
2023/07/21 04:22:50;;;;;;;;;;;;;;;;;;7368786;19;860;-62
2023/07/21 04:25:22;;;;;;;;;;;;;;;;;;7367411;19;788;-62
2023/07/21 04:27:53;;;;;;;;;;;;;;;;;;7369921;19;1441;-62
2023/07/21 04:30:21;;;;;;;;;;;;;;;;;;7366293;19;779;-62
2023/07/21 04:32:49;;;;;;;;;;;;;;;;;;7367347;19;831;-61
2023/07/21 04:35:18;;;;;;;;;;;;;;;;;;7368355;19;1675;-62
2023/07/21 04:37:47;;;;;;;;;;;;;;;;;;7364803;19;1247;-61
2023/07/21 04:40:17;;;;;;;;;;;;;;;;;;7366507;19;844;-62
2023/07/21 04:42:46;;;;;;;;;;;;;;;;;;7367532;19;984;-62
2023/07/21 04:45:15;;;;;;;;;;;;;;;;;;7365017;19;1842;-62
2023/07/21 04:47:55;;;;;;;;;;;;;;;;;;7364706;19;1370;-62
2023/07/21 04:50:25;;;;;;;;;;;;;;;;;;7366702;19;743;-62
2023/07/21 04:52:53;;;;;;;;;;;;;;;;;;7367070;19;807;-61
2023/07/21 04:55:22;;;;;;;;;;;;;;;;;;7367983;19;944;-62
2023/07/21 04:57:50;;;;;;;;;;;;;;;;;;7364631;19;1270;-62
2023/07/21 05:00:19;;;;;;;;;;;;;;;;;;7367276;19;791;-62
2023/07/21 05:02:47;;;;;;;;;;;;;;;;;;7366120;19;798;-61
2023/07/21 05:05:15;;;;;;;;;;;;;;;;;;7365191;19;1842;-61
2023/07/21 05:07:51;;;;;;;;;;;;;;;;;;7361713;19;1271;-61
2023/07/21 05:10:20;;;;;;;;;;;;;;;;;;7366182;19;845;-61
2023/07/21 05:12:48;;;;;;;;;;;;;;;;;;7367317;19;1203;-61
2023/07/21 05:15:49;;;;;;;;;;;;;;;;;;7366451;19;1241;-62
2023/07/21 05:18:26;;;;;;;;;;;;;;;;;;7366168;19;1365;-62
2023/07/21 05:21:25;;;;;;;;;;;;;;;;;;7366748;19;771;-61
2023/07/21 05:23:59;;;;;;;;;;;;;;;;;;7366379;19;1850;-61
2023/07/21 05:26:28;;;;;;;;;;;;;;;;;;7365284;19;1342;-61
2023/07/21 05:28:56;;;;;;;;;;;;;;;;;;7365868;19;846;-61
2023/07/21 05:31:35;;;;;;;;;;;;;;;;;;7366032;19;709;-60
2023/07/21 05:34:14;;;;;;;;;;;;;;;;;;7367529;19;891;-61
2023/07/21 05:36:42;;;;;;;;;;;;;;;;;;7368046;19;1878;-61
2023/07/21 05:39:10;;;;;;;;;;;;;;;;;;7364024;19;778;-60
2023/07/21 05:41:38;;;;;;;;;;;;;;;;;;7367220;19;780;-62
2023/07/21 05:44:08;;;;;;;;;;;;;;;;;;7368044;19;1837;-62
2023/07/21 05:46:38;;;;;;;;;;;;;;;;;;7364842;19;1868;-60
2023/07/21 05:49:09;;;;;;;;;;;;;;;;;;7365764;19;1860;-62
2023/07/21 05:51:38;;;;;;;;;;;;;;;;;;7367907;19;1436;-62
2023/07/21 05:54:29;;;;;;;;;;;;;;;;;;7366236;19;1609;-61
2023/07/21 05:57:01;;;;;;;;;;;;;;;;;;7364289;19;1290;-61
2023/07/21 05:59:36;;;;;;;;;;;;;;;;;;7364025;19;793;-62
2023/07/21 06:02:04;;;;;;;;;;;;;;;;;;7366119;19;1506;-61
2023/07/21 06:04:38;;;;;;;;;;;;;;;;;;7362626;19;1876;-61
2023/07/21 06:07:20;;;;;;;;;;;;;;;;;;7364002;19;1677;-62
2023/07/21 06:10:03;;;;;;;;;;;;;;;;;;7364056;19;733;-60
2023/07/21 06:12:40;;;;;;;;;;;;;;;;;;7366021;19;555;-61
2023/07/21 06:15:19;;;;;;;;;;;;;;;;;;7365938;19;596;-62
2023/07/21 06:17:55;;;;;;;;;;;;;;;;;;7361981;19;1319;-61
2023/07/21 06:20:25;;;;;;;;;;;;;;;;;;7365068;19;1703;-61
2023/07/21 06:22:54;;;;;;;;;;;;;;;;;;7364009;19;806;-62
2023/07/21 06:25:22;;;;;;;;;;;;;;;;;;7363257;19;1842;-62
2023/07/21 06:27:57;;;;;;;;;;;;;;;;;;7362155;19;1638;-61
2023/07/21 06:30:25;;;;;;;;;;;;;;;;;;7363203;19;807;-61
2023/07/21 06:32:54;;;;;;;;;;;;;;;;;;7363966;19;886;-61
2023/07/21 06:35:37;;;;;;;;;;;;;;;;;;7364060;19;787;-61
2023/07/21 06:38:25;;;;;;;;;;;;;;;;;;7361810;19;1740;-62
2023/07/21 06:41:12;;;;;;;;;;;;;;;;;;7364657;19;1851;-61
2023/07/21 06:43:46;;;;;;;;;;;;;;;;;;7369345;19;1839;-61
2023/07/21 06:46:22;;;;;;;;;;;;;;;;;;7365511;19;1579;-60
2023/07/21 06:49:14;;;;;;;;;;;;;;;;;;7361852;19;1240;-62
2023/07/21 06:51:47;;;;;;;;;;;;;;;;;;7362678;19;682;-60
2023/07/21 06:54:16;;;;;;;;;;;;;;;;;;7361732;19;806;-61
2023/07/21 06:56:44;;;;;;;;;;;;;;;;;;7363002;19;1277;-62
2023/07/21 06:59:12;;;;;;;;;;;;;;;;;;7363636;19;865;-60
2023/07/21 07:01:40;;;;;;;;;;;;;;;;;;7362764;19;863;-61
2023/07/21 07:04:09;;;;;;;;;;;;;;;;;;7362664;19;1850;-61
2023/07/21 07:06:37;;;;;;;;;;;;;;;;;;7361355;19;1317;-61
2023/07/21 07:09:05;;;;;;;;;;;;;;;;;;7363611;19;873;-62
2023/07/21 07:11:34;;;;;;;;;;;;;;;;;;7364533;19;803;-61
2023/07/21 07:14:02;;;;;;;;;;;;;;;;;;7361941;19;1994;-62
2023/07/21 07:16:32;;;;;;;;;;;;;;;;;;7361316;19;1851;-60
2023/07/21 07:19:00;;;;;;;;;;;;;;;;;;7363093;19;2118;-61
2023/07/21 07:21:28;;;;;;;;;;;;;;;;;;7365550;19;1792;-60
2023/07/21 07:23:57;;;;;;;;;;;;;;;;;;7364529;19;1857;-61
2023/07/21 07:26:26;;;;;;;;;;;;;;;;;;7364862;19;1979;-62
2023/07/21 07:28:54;;;;;;;;;;;;;;;;;;7364833;19;1236;-62
2023/07/21 07:31:22;;;;;;;;;;;;;;;;;;7367774;19;881;-61
2023/07/21 07:33:50;;;;;;;;;;;;;;;;;;7372314;19;1829;-62
2023/07/21 07:36:19;;;;;;;;;;;;;;;;;;7375167;19;1723;-62
2023/07/21 07:38:47;;;;;;;;;;;;;;;;;;7369377;19;863;-60
2023/07/21 07:41:17;;;;;;;;;;;;;;;;;;7370724;19;2004;-60
2023/07/21 07:43:45;;;;;;;;;;;;;;;;;;7373020;19;1655;-62
2023/07/21 07:46:13;;;;;;;;;;;;;;;;;;7370601;19;1936;-61
2023/07/21 07:48:42;;;;;;;;;;;;;;;;;;7372126;19;1615;-60
2023/07/21 07:51:10;;;;;;;;;;;;;;;;;;7372260;19;1677;-62
2023/07/21 07:53:38;;;;;;;;;;;;;;;;;;7371844;19;1629;-62
2023/07/21 07:56:06;;;;;;;;;;;;;;;;;;7373580;19;1680;-61
2023/07/21 07:58:34;;;;;;;;;;;;;;;;;;7372055;19;1715;-61
2023/07/21 08:01:03;;;;;;;;;;;;;;;;;;7373713;19;1453;-62
2023/07/21 08:03:31;;;;;;;;;;;;;;;;;;7370299;19;1693;-61
2023/07/21 08:05:59;;;;;;;;;;;;;;;;;;7371332;19;1858;-62
2023/07/21 08:08:28;;;;;;;;;;;;;;;;;;7367939;19;1837;-61
2023/07/21 08:10:56;;;;;;;;;;;;;;;;;;7371953;19;1669;-62
2023/07/21 08:13:24;;;;;;;;;;;;;;;;;;7370484;19;1574;-61
2023/07/21 08:15:52;;;;;;;;;;;;;;;;;;7370865;19;1899;-62
2023/07/21 08:18:20;;;;;;;;;;;;;;;;;;7371699;19;1721;-62
2023/07/21 08:20:48;;;;;;;;;;;;;;;;;;7370879;19;1685;-60
2023/07/21 08:23:16;;;;;;;;;;;;;;;;;;7373627;19;1484;-59
2023/07/21 08:25:44;;;;;;;;;;;;;;;;;;7367374;19;1845;-61
2023/07/21 08:28:13;;;;;;;;;;;;;;;;;;7368174;19;2127;-59
2023/07/21 08:30:41;;;;;;;;;;;;;;;;;;7371342;19;1429;-60
2023/07/21 08:33:09;;;;;;;;;;;;;;;;;;7373102;19;1297;-59
2023/07/21 08:35:37;;;;;;;;;;;;;;;;;;7372029;19;1787;-59
2023/07/21 08:38:05;;;;;;;;;;;;;;;;;;7368595;19;1741;-60
2023/07/21 08:40:33;;;;;;;;;;;;;;;;;;7368746;19;1721;-56
2023/07/21 08:43:01;;;;;;;;;;;;;;;;;;7369397;19;1491;-60
2023/07/21 08:45:31;;;;;;;;;;;;;;;;;;7363590;19;1852;-60
2023/07/21 08:48:01;;;;;;;;;;;;;;;;;;7366254;19;1329;-61
2023/07/21 08:50:29;;;;;;;;;;;;;;;;;;7368345;19;778;-60
2023/07/21 08:52:57;;;;;;;;;;;;;;;;;;7367855;19;847;-60
2023/07/21 08:55:25;;;;;;;;;;;;;;;;;;7368507;19;841;-59
2023/07/21 08:57:53;;;;;;;;;;;;;;;;;;7364635;19;1355;-59
2023/07/21 09:00:21;;;;;;;;;;;;;;;;;;7367551;19;1007;-59
2023/07/21 09:02:49;;;;;;;;;;;;;;;;;;7368500;19;784;-61
2023/07/21 09:05:18;;;;;;;;;;;;;;;;;;7366178;19;1841;-59
2023/07/21 09:07:47;;;;;;;;;;;;;;;;;;7366162;19;1333;-60
2023/07/21 09:10:15;;;;;;;;;;;;;;;;;;7366813;19;834;-61
2023/07/21 09:12:44;;;;;;;;;;;;;;;;;;7367773;19;850;-59
2023/07/21 09:15:12;;;;;;;;;;;;;;;;;;7367368;19;799;-59
2023/07/21 09:17:40;;;;;;;;;;;;;;;;;;7366397;19;1985;-62
2023/07/21 09:20:09;;;;;;;;;;;;;;;;;;7370994;19;1503;-60
2023/07/21 09:22:37;;;;;;;;;;;;;;;;;;7368428;19;1619;-62
2023/07/21 09:25:05;;;;;;;;;;;;;;;;;;7365014;19;1862;-59
2023/07/21 09:27:35;;;;;;;;;;;;;;;;;;7365424;19;1258;-61
2023/07/21 09:30:03;;;;;;;;;;;;;;;;;;7366369;19;774;-61
2023/07/21 09:32:31;;;;;;;;;;;;;;;;;;7369640;19;1015;-60
2023/07/21 09:35:00;;;;;;;;;;;;;;;;;;7368168;19;1841;-61
2023/07/21 09:37:28;;;;;;;;;;;;;;;;;;7369516;19;1777;-61
2023/07/21 09:39:57;;;;;;;;;;;;;;;;;;7369181;19;1675;-61
2023/07/21 09:42:25;;;;;;;;;;;;;;;;;;7366904;19;1900;-61
2023/07/21 09:44:53;;;;;;;;;;;;;;;;;;7368279;19;1842;-61
2023/07/21 09:47:22;;;;;;;;;;;;;;;;;;7366628;19;1710;-61
2023/07/21 09:49:51;;;;;;;;;;;;;;;;;;7369517;19;1652;-60
2023/07/21 09:52:20;;;;;;;;;;;;;;;;;;7370806;19;1742;-58
2023/07/21 09:54:48;;;;;;;;;;;;;;;;;;7365879;19;2075;-61
2023/07/21 09:57:16;;;;;;;;;;;;;;;;;;7367139;19;1778;-61
2023/07/21 09:59:44;;;;;;;;;;;;;;;;;;7368407;19;1637;-61
2023/07/21 10:02:12;;;;;;;;;;;;;;;;;;7364338;19;815;-61
2023/07/21 10:04:40;;;;;;;;;;;;;;;;;;7364285;19;1857;-60
2023/07/21 10:07:09;;;;;;;;;;;;;;;;;;7365109;19;1291;-61
2023/07/21 10:09:37;;;;;;;;;;;;;;;;;;7365874;19;827;-59
2023/07/21 10:12:06;;;;;;;;;;;;;;;;;;7366066;19;916;-61
2023/07/21 10:14:34;;;;;;;;;;;;;;;;;;7366295;19;1356;-59
2023/07/21 10:17:02;;;;;;;;;;;;;;;;;;7368965;19;1936;-61
2023/07/21 10:19:30;;;;;;;;;;;;;;;;;;7365544;19;927;-62
2023/07/21 10:21:59;;;;;;;;;;;;;;;;;;7366109;19;807;-61
2023/07/21 10:24:27;;;;;;;;;;;;;;;;;;7366058;19;1921;-61
2023/07/21 10:26:55;;;;;;;;;;;;;;;;;;7366068;19;1853;-61
2023/07/21 10:29:23;;;;;;;;;;;;;;;;;;7364814;19;864;-60
2023/07/21 10:31:51;;;;;;;;;;;;;;;;;;7365743;19;1542;-60
2023/07/21 10:34:19;;;;;;;;;;;;;;;;;;7366852;19;1817;-61
2023/07/21 10:36:48;;;;;;;;;;;;;;;;;;7367882;19;1669;-61
2023/07/21 10:39:16;;;;;;;;;;;;;;;;;;7365049;19;863;-62
2023/07/21 10:41:44;;;;;;;;;;;;;;;;;;7365242;19;922;-59
2023/07/21 10:44:12;;;;;;;;;;;;;;;;;;7365444;19;794;-61
2023/07/21 10:46:41;;;;;;;;;;;;;;;;;;7362404;19;2446;-60
2023/07/21 10:49:09;;;;;;;;;;;;;;;;;;7368550;19;1709;-61
2023/07/21 10:51:37;;;;;;;;;;;;;;;;;;7364742;19;812;-60
2023/07/21 10:54:05;;;;;;;;;;;;;;;;;;7366166;19;1666;-61
2023/07/21 10:56:34;;;;;;;;;;;;;;;;;;7367247;19;1455;-59
2023/07/21 10:59:03;;;;;;;;;;;;;;;;;;7363423;19;2122;-61
2023/07/21 11:01:31;;;;;;;;;;;;;;;;;;7368024;19;1690;-62
2023/07/21 11:03:59;;;;;;;;;;;;;;;;;;7366709;19;1631;-61
2023/07/21 11:06:28;;;;;;;;;;;;;;;;;;7371134;19;2163;-61
2023/07/21 11:08:56;;;;;;;;;;;;;;;;;;7371218;19;1800;-58
2023/07/21 11:11:24;;;;;;;;;;;;;;;;;;7373452;19;1469;-61
2023/07/21 11:13:52;;;;;;;;;;;;;;;;;;7372681;19;1663;-58
2023/07/21 11:16:20;;;;;;;;;;;;;;;;;;7373545;19;1648;-61
2023/07/21 11:18:49;;;;;;;;;;;;;;;;;;7370159;19;1820;-62
2023/07/21 11:21:17;;;;;;;;;;;;;;;;;;7370766;19;2013;-61
2023/07/21 11:23:45;;;;;;;;;;;;;;;;;;7369866;19;1846;-60
2023/07/21 11:26:13;;;;;;;;;;;;;;;;;;7373144;19;1876;-61
2023/07/21 11:28:42;;;;;;;;;;;;;;;;;;7371259;19;1877;-60
2023/07/21 11:31:10;;;;;;;;;;;;;;;;;;7371733;19;1775;-61
2023/07/21 11:33:38;;;;;;;;;;;;;;;;;;7371356;19;1753;-60
2023/07/21 11:36:06;;;;;;;;;;;;;;;;;;7373217;19;1958;-62
2023/07/21 11:38:34;;;;;;;;;;;;;;;;;;7372120;19;1673;-60
2023/07/21 11:41:03;;;;;;;;;;;;;;;;;;7369894;19;885;-62
2023/07/21 11:43:31;;;;;;;;;;;;;;;;;;7369726;19;837;-61
2023/07/21 11:46:00;;;;;;;;;;;;;;;;;;7370884;19;1855;-60
2023/07/21 11:48:29;;;;;;;;;;;;;;;;;;7369240;19;1473;-61
2023/07/21 11:50:57;;;;;;;;;;;;;;;;;;7371998;19;1626;-60
2023/07/21 11:53:26;;;;;;;;;;;;;;;;;;7370929;19;1975;-61
2023/07/21 11:55:54;;;;;;;;;;;;;;;;;;7371268;19;1945;-61
2023/07/21 11:58:22;;;;;;;;;;;;;;;;;;7371273;19;1451;-60
2023/07/21 12:00:51;;;;;;;;;;;;;;;;;;7372695;19;1659;-60
2023/07/21 12:03:19;;;;;;;;;;;;;;;;;;7373506;19;1438;-62
2023/07/21 12:05:47;;;;;;;;;;;;;;;;;;7371119;19;1882;-59
2023/07/21 12:08:15;;;;;;;;;;;;;;;;;;7368576;19;1656;-59
2023/07/21 12:10:43;;;;;;;;;;;;;;;;;;7372941;19;1734;-60
2023/07/21 12:13:12;;;;;;;;;;;;;;;;;;7372352;19;1729;-60
2023/07/21 12:15:40;;;;;;;;;;;;;;;;;;7369286;19;1602;-60
2023/07/21 12:18:08;;;;;;;;;;;;;;;;;;7369967;19;1730;-61
2023/07/21 12:20:36;;;;;;;;;;;;;;;;;;7367123;19;819;-60
2023/07/21 12:23:04;;;;;;;;;;;;;;;;;;7368648;19;1875;-61
2023/07/21 12:25:33;;;;;;;;;;;;;;;;;;7373086;19;1852;-61
2023/07/21 12:28:04;;;;;;;;;;;;;;;;;;7370641;19;1473;-60
2023/07/21 12:30:32;;;;;;;;;;;;;;;;;;7368360;19;2012;-61
2023/07/21 12:33:00;;;;;;;;;;;;;;;;;;7372754;19;1658;-59
2023/07/21 12:35:29;;;;;;;;;;;;;;;;;;7368514;19;889;-60
2023/07/21 12:37:57;;;;;;;;;;;;;;;;;;7366789;19;1314;-61
2023/07/21 12:40:25;;;;;;;;;;;;;;;;;;7370357;19;1846;-61
2023/07/21 12:42:53;;;;;;;;;;;;;;;;;;7369151;19;2206;-61
2023/07/21 12:45:21;;;;;;;;;;;;;;;;;;7366243;19;2089;-60
2023/07/21 12:47:49;;;;;;;;;;;;;;;;;;7368889;19;1857;-59
2023/07/21 12:50:17;;;;;;;;;;;;;;;;;;7371678;19;1495;-60
2023/07/21 12:52:46;;;;;;;;;;;;;;;;;;7370063;19;1709;-60
2023/07/21 12:55:14;;;;;;;;;;;;;;;;;;7371416;19;1562;-60
2023/07/21 12:57:42;;;;;;;;;;;;;;;;;;7365837;19;1328;-58
2023/07/21 13:00:11;;;;;;;;;;;;;;;;;;7366763;19;854;-59
2023/07/21 13:02:39;;;;;;;;;;;;;;;;;;7367696;19;770;-60
2023/07/21 13:05:07;;;;;;;;;;;;;;;;;;7367168;19;802;-60
2023/07/21 13:07:35;;;;;;;;;;;;;;;;;;7367660;19;1865;-60
2023/07/21 13:10:04;;;;;;;;;;;;;;;;;;7369330;19;1543;-60
2023/07/21 13:12:32;;;;;;;;;;;;;;;;;;7370766;19;1843;-61
2023/07/21 13:15:00;;;;;;;;;;;;;;;;;;7371785;19;1192;-62
2023/07/21 13:17:28;;;;;;;;;;;;;;;;;;7365308;19;1265;-60
2023/07/21 13:19:57;;;;;;;;;;;;;;;;;;7366490;19;798;-62
2023/07/21 13:22:25;;;;;;;;;;;;;;;;;;7366811;19;857;-64
2023/07/21 13:24:53;;;;;;;;;;;;;;;;;;7367523;19;850;-63
2023/07/21 13:27:21;;;;;;;;;;;;;;;;;;7363500;19;1849;-63
2023/07/21 13:29:50;;;;;;;;;;;;;;;;;;7364946;19;845;-62
2023/07/21 13:32:18;;;;;;;;;;;;;;;;;;7365945;19;1682;-64
2023/07/21 13:34:46;;;;;;;;;;;;;;;;;;7370388;19;1670;-63
2023/07/21 13:37:14;;;;;;;;;;;;;;;;;;7369379;19;1657;-62
2023/07/21 13:39:42;;;;;;;;;;;;;;;;;;7365803;19;1702;-64
2023/07/21 13:42:10;;;;;;;;;;;;;;;;;;7370744;19;1639;-64
2023/07/21 13:44:38;;;;;;;;;;;;;;;;;;7370908;19;1989;-64
2023/07/21 13:47:06;;;;;;;;;;;;;;;;;;7367337;19;1857;-64
2023/07/21 13:49:35;;;;;;;;;;;;;;;;;;7367775;19;1831;-63
2023/07/21 13:52:03;;;;;;;;;;;;;;;;;;7369761;19;1897;-61
2023/07/21 13:54:31;;;;;;;;;;;;;;;;;;7369812;19;1494;-62
2023/07/21 13:56:59;;;;;;;;;;;;;;;;;;7367353;19;1692;-64
2023/07/21 13:59:27;;;;;;;;;;;;;;;;;;7369068;19;1641;-63
2023/07/21 14:01:55;;;;;;;;;;;;;;;;;;7369857;19;1625;-61
2023/07/21 14:04:24;;;;;;;;;;;;;;;;;;7369512;19;1726;-63
2023/07/21 14:06:52;;;;;;;;;;;;;;;;;;7367304;19;1854;-62
2023/07/21 14:09:20;;;;;;;;;;;;;;;;;;7369066;19;1223;-62
2023/07/21 14:11:48;;;;;;;;;;;;;;;;;;7367227;19;1918;-60
2023/07/21 14:14:16;;;;;;;;;;;;;;;;;;7370195;19;1478;-61
2023/07/21 14:16:45;;;;;;;;;;;;;;;;;;7365810;19;1893;-63
2023/07/21 14:19:13;;;;;;;;;;;;;;;;;;7368084;19;1792;-60
2023/07/21 14:21:41;;;;;;;;;;;;;;;;;;7367622;19;1689;-62
2023/07/21 14:24:09;;;;;;;;;;;;;;;;;;7369567;19;1483;-60
2023/07/21 14:26:37;;;;;;;;;;;;;;;;;;7367659;19;2096;-62
2023/07/21 14:29:06;;;;;;;;;;;;;;;;;;7367449;19;1654;-62
2023/07/21 14:31:35;;;;;;;;;;;;;;;;;;7366398;19;2077;-62
2023/07/21 14:34:04;;;;;;;;;;;;;;;;;;7365896;19;1812;-61
2023/07/21 14:36:32;;;;;;;;;;;;;;;;;;7367629;19;1474;-61
2023/07/21 14:39:00;;;;;;;;;;;;;;;;;;7364971;19;2041;-60
2023/07/21 14:41:29;;;;;;;;;;;;;;;;;;7366886;19;1592;-62
2023/07/21 14:43:58;;;;;;;;;;;;;;;;;;7368995;19;1651;-62
2023/07/21 14:46:26;;;;;;;;;;;;;;;;;;7365349;19;1853;-64
2023/07/21 14:48:54;;;;;;;;;;;;;;;;;;7366376;19;1753;-63
2023/07/21 14:51:23;;;;;;;;;;;;;;;;;;7367376;19;1462;-62
2023/07/21 14:53:51;;;;;;;;;;;;;;;;;;7363558;19;854;-63
2023/07/21 14:56:19;;;;;;;;;;;;;;;;;;7364550;19;1706;-62
2023/07/21 14:58:47;;;;;;;;;;;;;;;;;;7363659;19;838;-63
2023/07/21 15:01:16;;;;;;;;;;;;;;;;;;7365276;19;755;-63
2023/07/21 15:03:44;;;;;;;;;;;;;;;;;;7364186;19;906;-63
2023/07/21 15:06:12;;;;;;;;;;;;;;;;;;7362707;19;1837;-63
2023/07/21 15:08:40;;;;;;;;;;;;;;;;;;7363250;19;846;-60
2023/07/21 15:11:08;;;;;;;;;;;;;;;;;;7366938;19;1774;-62
2023/07/21 15:13:36;;;;;;;;;;;;;;;;;;7368122;19;802;-62
2023/07/21 15:16:05;;;;;;;;;;;;;;;;;;7365823;19;1594;-62
2023/07/21 15:18:33;;;;;;;;;;;;;;;;;;7360316;19;1347;-62
2023/07/21 15:21:01;;;;;;;;;;;;;;;;;;7364794;19;855;-63
2023/07/21 15:23:29;;;;;;;;;;;;;;;;;;7363266;19;760;-63
2023/07/21 15:25:57;;;;;;;;;;;;;;;;;;7363477;19;819;-60
2023/07/21 15:28:26;;;;;;;;;;;;;;;;;;7361997;19;1845;-62
2023/07/21 15:30:54;;;;;;;;;;;;;;;;;;7364251;19;798;-62
2023/07/21 15:33:22;;;;;;;;;;;;;;;;;;7363378;19;743;-63
2023/07/21 15:35:50;;;;;;;;;;;;;;;;;;7364578;19;1244;-60
2023/07/21 15:38:19;;;;;;;;;;;;;;;;;;7360563;19;1274;-61
2023/07/21 15:40:47;;;;;;;;;;;;;;;;;;7362903;19;818;-62
2023/07/21 15:43:15;;;;;;;;;;;;;;;;;;7362920;19;888;-62
2023/07/21 15:45:43;;;;;;;;;;;;;;;;;;7364128;19;888;-62
2023/07/21 15:48:11;;;;;;;;;;;;;;;;;;7359766;19;1861;-64
2023/07/21 15:50:39;;;;;;;;;;;;;;;;;;7362947;19;802;-63
2023/07/21 15:53:07;;;;;;;;;;;;;;;;;;7369824;19;814;-63
2023/07/21 15:55:35;;;;;;;;;;;;;;;;;;7368818;19;881;-62
2023/07/21 15:58:04;;;;;;;;;;;;;;;;;;7367704;19;1325;-62
2023/07/21 16:00:32;;;;;;;;;;;;;;;;;;7368088;19;929;-62
2023/07/21 16:03:01;;;;;;;;;;;;;;;;;;7370467;19;857;-63
2023/07/21 16:05:29;;;;;;;;;;;;;;;;;;7373702;19;1603;-62
2023/07/21 16:07:57;;;;;;;;;;;;;;;;;;7368239;19;1845;-62
2023/07/21 16:10:25;;;;;;;;;;;;;;;;;;7368828;19;779;-62
2023/07/21 16:12:54;;;;;;;;;;;;;;;;;;7369252;19;773;-63
2023/07/21 16:15:22;;;;;;;;;;;;;;;;;;7369156;19;761;-63
2023/07/21 16:17:50;;;;;;;;;;;;;;;;;;7366598;19;1270;-62
2023/07/21 16:20:18;;;;;;;;;;;;;;;;;;7369954;19;789;-63
2023/07/21 16:22:47;;;;;;;;;;;;;;;;;;7369006;19;804;-62
2023/07/21 16:25:15;;;;;;;;;;;;;;;;;;7368850;19;862;-62
2023/07/21 16:27:43;;;;;;;;;;;;;;;;;;7366720;19;1844;-62
2023/07/21 16:30:12;;;;;;;;;;;;;;;;;;7367409;19;873;-63
2023/07/21 16:32:40;;;;;;;;;;;;;;;;;;7368464;19;2006;-62
2023/07/21 16:35:08;;;;;;;;;;;;;;;;;;7367884;19;764;-59
2023/07/21 16:37:38;;;;;;;;;;;;;;;;;;7369704;19;1334;-61
2023/07/21 16:40:06;;;;;;;;;;;;;;;;;;7367473;19;803;-61
2023/07/21 16:42:35;;;;;;;;;;;;;;;;;;7369108;19;1949;-62
2023/07/21 16:45:05;;;;;;;;;;;;;;;;;;7372150;19;1536;-63
2023/07/21 16:47:33;;;;;;;;;;;;;;;;;;7366794;19;1845;-62
2023/07/21 16:50:01;;;;;;;;;;;;;;;;;;7367163;19;783;-61
2023/07/21 16:52:29;;;;;;;;;;;;;;;;;;7372077;19;1379;-62
2023/07/21 16:54:57;;;;;;;;;;;;;;;;;;7370774;19;1452;-62
2023/07/21 16:57:26;;;;;;;;;;;;;;;;;;7366161;19;1256;-62
2023/07/21 16:59:56;;;;;;;;;;;;;;;;;;7367286;19;787;-61
2023/07/21 17:02:24;;;;;;;;;;;;;;;;;;7365750;19;750;-62
2023/07/21 17:04:52;;;;;;;;;;;;;;;;;;7368950;19;1625;-62
2023/07/21 17:07:20;;;;;;;;;;;;;;;;;;7370015;19;1846;-62
2023/07/21 17:09:48;;;;;;;;;;;;;;;;;;7367681;19;752;-61
2023/07/21 17:12:17;;;;;;;;;;;;;;;;;;7370554;19;934;-61
2023/07/21 17:14:45;;;;;;;;;;;;;;;;;;7370857;19;1262;-63
2023/07/21 17:17:13;;;;;;;;;;;;;;;;;;7366463;19;1284;-61
2023/07/21 17:19:42;;;;;;;;;;;;;;;;;;7369307;19;1397;-59
2023/07/21 17:22:10;;;;;;;;;;;;;;;;;;7371207;19;1223;-55